createdAt,value
2023-01-10T00:01:33.679Z,4.57
2023-01-10T00:06:27.092Z,4.78
2023-01-10T00:08:53.858Z,4.97
2023-01-10T00:11:39.116Z,5.32
2023-01-10T00:14:06.025Z,5.22
2023-01-10T00:16:32.782Z,5.25
2023-01-10T00:18:59.549Z,4.80
2023-01-10T00:21:28.661Z,5.03
2023-01-10T00:23:57.984Z,5.20
2023-01-10T00:26:24.780Z,5.07
2023-01-10T00:28:52.431Z,4.85
2023-01-10T00:31:19.259Z,4.50
2023-01-10T00:33:46.780Z,4.75
2023-01-10T00:36:13.663Z,3.75
2023-01-10T00:38:40.387Z,3.35
2023-01-10T00:41:27.157Z,3.88
2023-01-10T00:43:56.884Z,4.35
2023-01-10T00:46:24.394Z,3.83
2023-01-10T00:48:51.371Z,4.43
2023-01-10T00:51:18.493Z,5.00
2023-01-10T00:56:11.937Z,7.25
2023-01-10T00:58:38.661Z,6.53
2023-01-10T01:01:05.742Z,6.97
2023-01-10T01:06:05.015Z,6.32
2023-01-10T01:08:32.144Z,6.18
2023-01-10T01:13:25.834Z,6.20
2023-01-10T01:15:52.745Z,7.80
2023-01-10T01:18:21.794Z,7.72
2023-01-10T01:20:53.702Z,7.38
2023-01-10T01:23:20.957Z,7.65
2023-01-10T01:25:51.694Z,7.68
2023-01-10T01:28:19.094Z,7.18
2023-01-10T01:30:46.176Z,7.03
2023-01-10T01:33:13.478Z,7.65
2023-01-10T01:35:48.272Z,6.70
2023-01-10T01:38:16.229Z,6.07
2023-01-10T01:40:43.467Z,5.70
2023-01-10T01:43:25.836Z,5.45
2023-01-10T01:45:53.482Z,5.70
2023-01-10T01:48:35.971Z,5.35
2023-01-10T01:51:17.974Z,5.40
2023-01-10T01:53:49.362Z,5.22
2023-01-10T01:56:22.708Z,5.70
2023-01-10T01:58:55.418Z,5.57
2023-01-10T02:01:23.284Z,4.60
2023-01-10T02:04:08.785Z,5.05
2023-01-10T02:06:35.668Z,5.55
2023-01-10T02:09:12.106Z,5.15
2023-01-10T02:11:38.888Z,4.43
2023-01-10T02:14:07.198Z,4.85
2023-01-10T02:16:34.016Z,4.40
2023-01-10T02:19:00.854Z,5.03
2023-01-10T02:22:06.423Z,4.10
2023-01-10T02:25:15.299Z,4.20
2023-01-10T02:27:42.034Z,4.47
2023-01-10T02:30:20.534Z,4.55
2023-01-10T02:33:04.590Z,3.97
2023-01-10T02:35:34.784Z,4.55
2023-01-10T02:38:17.952Z,4.80
2023-01-10T02:40:49.774Z,3.63
2023-01-10T02:43:20.841Z,3.65
2023-01-10T02:45:57.337Z,3.70
2023-01-10T02:48:24.174Z,3.50
2023-01-10T02:51:19.727Z,3.38
2023-01-10T02:54:03.759Z,3.58
2023-01-10T02:56:30.440Z,3.33
2023-01-10T02:59:11.890Z,3.40
2023-01-10T03:01:58.951Z,3.72
2023-01-10T03:04:36.905Z,3.70
2023-01-10T03:07:23.490Z,2.83
2023-01-10T03:10:08.962Z,3.58
2023-01-10T03:13:02.148Z,3.40
2023-01-10T03:15:32.849Z,2.97
2023-01-10T03:18:04.110Z,3.38
2023-01-10T03:20:33.856Z,3.40
2023-01-10T03:23:02.853Z,3.33
2023-01-10T03:25:34.230Z,2.72
2023-01-10T03:28:11.048Z,3.08
2023-01-10T03:30:45.411Z,3.13
2023-01-10T03:33:14.972Z,2.90
2023-01-10T03:36:01.110Z,2.92
2023-01-10T03:38:49.073Z,2.92
2023-01-10T03:41:43.749Z,2.72
2023-01-10T03:44:51.485Z,2.80
2023-01-10T03:47:48.588Z,3.15
2023-01-10T03:50:20.005Z,2.67
2023-01-10T03:52:47.295Z,2.70
2023-01-10T03:55:18.520Z,2.50
2023-01-10T03:57:45.734Z,2.50
2023-01-10T04:02:40.165Z,2.58
2023-01-10T04:05:07.360Z,2.88
2023-01-10T04:10:01.298Z,2.42
2023-01-10T04:12:28.088Z,2.90
2023-01-10T04:14:54.911Z,2.50
2023-01-10T04:17:21.627Z,2.90
2023-01-10T04:19:48.352Z,2.22
2023-01-10T04:22:15.130Z,2.50
2023-01-10T04:24:44.160Z,2.10
2023-01-10T04:27:10.981Z,1.88
2023-01-10T04:29:37.749Z,2.10
2023-01-10T04:32:04.626Z,1.92
2023-01-10T04:34:31.412Z,2.30
2023-01-10T04:36:58.188Z,2.13
2023-01-10T04:39:25.016Z,2.30
2023-01-10T04:41:51.843Z,2.17
2023-01-10T04:44:18.575Z,2.00
2023-01-10T04:46:45.573Z,2.08
2023-01-10T04:49:12.486Z,1.95
2023-01-10T04:51:39.534Z,2.00
2023-01-10T04:54:06.655Z,1.77
2023-01-10T04:56:33.960Z,1.83
2023-01-10T04:59:00.873Z,2.00
2023-01-10T05:01:27.756Z,1.50
2023-01-10T05:03:56.471Z,1.55
2023-01-10T05:06:23.975Z,1.60
2023-01-10T05:08:51.208Z,1.63
2023-01-10T05:11:17.934Z,1.67
2023-01-10T05:13:46.558Z,1.55
2023-01-10T05:16:14.924Z,1.52
2023-01-10T05:18:42.117Z,1.50
2023-01-10T05:23:37.664Z,1.70
2023-01-10T05:26:09.902Z,1.70
2023-01-10T05:28:37.233Z,1.70
2023-01-10T05:31:06.996Z,1.70
2023-01-10T05:33:33.942Z,1.52
2023-01-10T05:36:05.228Z,1.60
2023-01-10T05:38:33.107Z,1.63
2023-01-10T05:41:00.784Z,2.25
2023-01-10T05:43:28.432Z,1.92
2023-01-10T05:45:55.350Z,2.50
2023-01-10T05:48:22.214Z,1.90
2023-01-10T05:50:52.485Z,1.92
2023-01-10T05:53:20.067Z,1.80
2023-01-10T05:55:58.185Z,1.65
2023-01-10T05:58:25.921Z,1.60
2023-01-10T06:00:54.729Z,2.72
2023-01-10T06:03:21.701Z,1.90
2023-01-10T06:05:49.188Z,1.70
2023-01-10T06:08:16.653Z,1.65
2023-01-10T06:10:43.930Z,1.40
2023-01-10T06:13:12.191Z,1.40
2023-01-10T06:15:39.407Z,1.50
2023-01-10T06:20:33.356Z,1.52
2023-01-10T06:23:04.467Z,1.50
2023-01-10T06:25:40.709Z,1.73
2023-01-10T06:28:09.155Z,1.38
2023-01-10T06:30:35.977Z,1.10
2023-01-10T06:33:04.508Z,1.27
2023-01-10T06:35:31.915Z,1.30
2023-01-10T06:37:59.229Z,1.40
2023-01-10T06:40:26.672Z,1.20
2023-01-10T06:42:53.482Z,1.00
2023-01-10T06:45:20.550Z,0.88
2023-01-10T06:50:14.448Z,2.78
2023-01-10T06:52:42.068Z,2.67
2023-01-10T06:55:09.199Z,2.40
2023-01-10T07:00:05.360Z,1.83
2023-01-10T07:02:32.219Z,1.48
2023-01-10T07:04:58.964Z,1.30
2023-01-10T07:07:25.737Z,2.53
2023-01-10T07:09:52.650Z,2.30
2023-01-10T07:12:19.448Z,2.53
2023-01-10T07:14:46.226Z,1.15
2023-01-10T07:17:13.009Z,1.27
2023-01-10T07:19:39.779Z,1.42
2023-01-10T07:22:06.506Z,1.20
2023-01-10T07:24:33.953Z,1.13
2023-01-10T07:27:00.708Z,2.40
2023-01-10T07:29:27.458Z,0.90
2023-01-10T07:31:54.269Z,1.35
2023-01-10T07:34:21.098Z,1.27
2023-01-10T07:36:47.981Z,1.40
2023-01-10T07:39:14.845Z,1.23
2023-01-10T07:41:41.681Z,1.15
2023-01-10T07:44:08.407Z,1.17
2023-01-10T07:46:35.246Z,1.40
2023-01-10T07:49:02.144Z,1.30
2023-01-10T07:51:28.959Z,1.10
2023-01-10T07:53:55.776Z,17.58
2023-01-10T07:56:22.609Z,4.28
2023-01-10T07:58:49.367Z,1.65
2023-01-10T08:01:16.212Z,2.63
2023-01-10T08:03:43.168Z,3.05
2023-01-10T08:08:42.769Z,2.40
2023-01-10T08:11:09.560Z,2.10
2023-01-10T08:13:36.523Z,2.60
2023-01-10T08:16:08.464Z,2.08
2023-01-10T08:18:35.626Z,2.50
2023-01-10T08:23:29.628Z,2.10
2023-01-10T08:25:59.204Z,2.75
2023-01-10T08:28:26.053Z,3.40
2023-01-10T08:30:55.634Z,4.05
2023-01-10T08:33:23.975Z,3.75
2023-01-10T08:35:51.888Z,4.22
2023-01-10T08:38:18.693Z,3.78
2023-01-10T08:40:45.584Z,4.03
2023-01-10T08:43:13.526Z,2.45
2023-01-10T08:45:40.840Z,1.90
2023-01-10T08:48:09.492Z,1.95
2023-01-10T08:50:36.689Z,1.60
2023-01-10T08:53:03.612Z,1.45
2023-01-10T08:55:31.333Z,1.30
2023-01-10T08:58:01.759Z,1.20
2023-01-10T09:00:29.228Z,1.20
2023-01-10T09:02:56.040Z,0.90
2023-01-10T09:05:27.446Z,1.13
2023-01-10T09:08:00.073Z,1.02
2023-01-10T09:10:27.756Z,1.42
2023-01-10T09:12:57.459Z,1.10
2023-01-10T09:15:32.793Z,1.02
2023-01-10T09:18:05.391Z,1.00
2023-01-10T09:20:37.420Z,0.95
2023-01-10T09:23:17.392Z,0.93
2023-01-10T09:25:45.301Z,0.90
2023-01-10T09:28:12.118Z,0.70
2023-01-10T09:30:39.149Z,0.65
2023-01-10T09:33:07.339Z,0.60
2023-01-10T09:35:36.544Z,0.60
2023-01-10T09:38:05.180Z,0.60
2023-01-10T09:41:01.890Z,0.30
2023-01-10T09:44:06.466Z,0.50
2023-01-10T09:46:36.177Z,0.30
2023-01-10T09:49:27.992Z,0.40
2023-01-10T09:51:59.276Z,0.60
2023-01-10T09:54:29.901Z,0.22
2023-01-10T09:56:59.695Z,0.47
2023-01-10T09:59:32.743Z,0.25
2023-01-10T10:02:18.340Z,0.20
2023-01-10T10:04:55.573Z,0.32
2023-01-10T10:07:22.396Z,0.20
2023-01-10T10:09:49.250Z,0.22
2023-01-10T10:12:36.875Z,0.20
2023-01-10T10:15:21.330Z,0.20
2023-01-10T10:18:20.143Z,0.20
2023-01-10T10:21:03.851Z,0.38
2023-01-10T10:23:45.885Z,0.38
2023-01-10T10:26:48.954Z,0.50
2023-01-10T10:29:33.656Z,0.60
2023-01-10T10:32:08.433Z,0.50
2023-01-10T10:34:49.498Z,0.30
2023-01-10T10:37:45.355Z,0.40
2023-01-10T10:40:15.256Z,0.40
2023-01-10T10:42:48.487Z,0.60
2023-01-10T10:48:00.444Z,0.60
2023-01-10T10:50:35.400Z,0.50
2023-01-10T10:53:03.602Z,0.63
2023-01-10T10:55:35.650Z,0.63
2023-01-10T10:58:04.251Z,0.70
2023-01-10T11:00:31.607Z,0.60
2023-01-10T11:03:01.654Z,0.80
2023-01-10T11:05:40.650Z,0.68
2023-01-10T11:08:13.830Z,0.63
2023-01-10T11:13:16.850Z,0.95
2023-01-10T11:15:48.970Z,0.80
2023-01-10T11:18:18.236Z,0.73
2023-01-10T11:20:51.691Z,0.63
2023-01-10T11:23:50.458Z,0.65
2023-01-10T11:26:37.498Z,1.35
2023-01-10T11:29:15.775Z,0.60
2023-01-10T11:31:42.663Z,0.40
2023-01-10T11:34:25.081Z,0.50
2023-01-10T11:37:00.919Z,0.40
2023-01-10T11:39:29.668Z,0.20
2023-01-10T11:41:59.410Z,0.30
2023-01-10T11:44:29.058Z,0.20
2023-01-10T11:47:02.474Z,0.55
2023-01-10T11:49:39.220Z,0.17
2023-01-10T11:52:21.969Z,0.40
2023-01-10T11:54:49.243Z,0.30
2023-01-10T11:57:22.639Z,0.20
2023-01-10T12:00:03.540Z,0.20
2023-01-10T12:02:44.480Z,0.40
2023-01-10T12:05:19.736Z,0.40
2023-01-10T12:08:08.035Z,0.22
2023-01-10T12:10:35.840Z,0.40
2023-01-10T12:13:15.502Z,0.22
2023-01-10T12:15:42.412Z,0.30
2023-01-10T12:18:12.263Z,0.22
2023-01-10T12:20:51.839Z,0.30
2023-01-10T12:23:21.878Z,0.30
2023-01-10T12:25:50.022Z,0.22
2023-01-10T12:28:25.984Z,0.30
2023-01-10T12:30:55.866Z,0.40
2023-01-10T12:33:38.739Z,0.35
2023-01-10T12:36:31.005Z,0.40
2023-01-10T12:39:05.926Z,0.20
2023-01-10T12:42:31.008Z,0.22
2023-01-10T12:45:05.196Z,0.32
2023-01-10T12:47:56.761Z,0.20
2023-01-10T12:50:41.322Z,0.20
2023-01-10T12:53:14.287Z,0.20
2023-01-10T12:55:45.022Z,0.30
2023-01-10T12:58:21.910Z,0.30
2023-01-10T13:00:53.754Z,0.30
2023-01-10T13:03:22.436Z,0.25
2023-01-10T13:05:51.998Z,0.20
2023-01-10T13:08:23.804Z,0.20
2023-01-10T13:10:54.335Z,0.32
2023-01-10T13:13:37.123Z,0.20
2023-01-10T13:16:34.919Z,0.20
2023-01-10T13:19:24.592Z,0.22
2023-01-10T13:22:11.441Z,0.32
2023-01-10T13:24:38.300Z,0.80
2023-01-10T13:27:05.491Z,0.38
2023-01-10T13:29:39.441Z,0.30
2023-01-10T13:32:27.168Z,0.30
2023-01-10T13:34:54.519Z,0.35
2023-01-10T13:37:38.622Z,0.20
2023-01-10T13:40:06.286Z,0.30
2023-01-10T13:42:52.610Z,0.20
2023-01-10T13:45:20.731Z,0.50
2023-01-10T13:47:55.715Z,0.30
2023-01-10T13:50:25.670Z,0.40
2023-01-10T13:53:15.533Z,0.52
2023-01-10T13:55:53.794Z,0.50
2023-01-10T13:58:43.608Z,0.57
2023-01-10T14:01:56.103Z,0.60
2023-01-10T14:04:29.700Z,0.55
2023-01-10T14:07:17.873Z,0.52
2023-01-10T14:09:46.893Z,0.88
2023-01-10T14:12:46.209Z,0.50
2023-01-10T14:15:24.629Z,0.30
2023-01-10T14:18:04.671Z,0.40
2023-01-10T14:20:34.954Z,0.50
2023-01-10T14:23:04.003Z,0.47
2023-01-10T14:25:34.206Z,0.40
2023-01-10T14:28:01.712Z,0.30
2023-01-10T14:30:37.152Z,0.35
2023-01-10T14:33:21.363Z,0.32
2023-01-10T14:35:53.376Z,0.40
2023-01-10T14:38:24.609Z,0.32
2023-01-10T14:40:57.039Z,0.43
2023-01-10T14:43:28.516Z,0.40
2023-01-10T14:46:00.825Z,0.30
2023-01-10T14:48:51.497Z,0.30
2023-01-10T14:51:21.653Z,0.43
2023-01-10T14:53:55.938Z,0.70
2023-01-10T14:56:26.809Z,0.75
2023-01-10T14:58:53.656Z,2.00
2023-01-10T15:01:30.583Z,1.13
2023-01-10T15:03:57.690Z,1.52
2023-01-10T15:06:26.068Z,1.30
2023-01-10T15:09:00.651Z,1.42
2023-01-10T15:11:30.329Z,0.73
2023-01-10T15:14:03.741Z,1.02
2023-01-10T15:16:32.339Z,1.48
2023-01-10T15:18:59.318Z,1.70
2023-01-10T15:21:26.121Z,1.80
2023-01-10T15:26:25.762Z,0.75
2023-01-10T15:29:13.846Z,0.60
2023-01-10T15:31:41.569Z,0.50
2023-01-10T15:34:17.033Z,0.40
2023-01-10T15:36:52.359Z,0.80
2023-01-10T15:39:25.912Z,0.93
2023-01-10T15:41:59.545Z,1.10
2023-01-10T15:44:38.353Z,1.17
2023-01-10T15:47:06.582Z,1.60
2023-01-10T15:49:33.742Z,1.40
2023-01-10T15:52:00.626Z,1.25
2023-01-10T15:54:29.618Z,1.33
2023-01-10T15:57:07.618Z,1.25
2023-01-10T15:59:39.738Z,1.50
2023-01-10T16:02:13.573Z,1.48
2023-01-10T16:04:41.438Z,1.25
2023-01-10T16:07:27.651Z,1.40
2023-01-10T16:10:08.191Z,1.10
2023-01-10T16:12:55.068Z,1.10
2023-01-10T16:15:27.400Z,0.90
2023-01-10T16:17:54.859Z,1.00
2023-01-10T16:20:29.587Z,1.13
2023-01-10T16:22:57.649Z,1.08
2023-01-10T16:25:31.953Z,1.40
2023-01-10T16:27:59.553Z,1.10
2023-01-10T16:30:31.716Z,1.23
2023-01-10T16:33:10.493Z,1.10
2023-01-10T16:35:37.363Z,1.23
2023-01-10T16:38:04.348Z,1.40
2023-01-10T16:40:43.298Z,1.13
2023-01-10T16:43:25.639Z,1.33
2023-01-10T16:45:59.903Z,0.80
2023-01-10T16:48:29.194Z,0.60
2023-01-10T16:51:24.985Z,0.73
2023-01-10T16:53:52.478Z,0.88
2023-01-10T16:56:26.943Z,0.80
2023-01-10T16:58:55.377Z,0.82
2023-01-10T17:01:26.424Z,0.88
2023-01-10T17:03:54.055Z,1.10
2023-01-10T17:06:20.917Z,1.27
2023-01-10T17:11:30.319Z,1.38
2023-01-10T17:13:59.553Z,1.70
2023-01-10T17:16:26.539Z,2.00
2023-01-10T17:18:53.353Z,1.77
2023-01-10T17:23:49.099Z,1.70
2023-01-10T17:26:17.931Z,1.52
2023-01-10T17:28:46.523Z,1.73
2023-01-10T17:31:13.356Z,2.50
2023-01-10T17:36:07.316Z,1.77
2023-01-10T17:38:34.214Z,2.05
2023-01-10T17:43:31.560Z,1.10
2023-01-10T17:46:01.392Z,1.20
2023-01-10T17:48:28.227Z,0.98
2023-01-10T17:53:23.685Z,1.10
2023-01-10T17:55:51.261Z,1.10
2023-01-10T17:58:18.493Z,0.82
2023-01-10T18:00:46.045Z,1.00
2023-01-10T18:03:13.045Z,1.00
2023-01-10T18:05:39.950Z,1.20
2023-01-10T18:10:35.088Z,0.93
2023-01-10T18:13:03.497Z,0.90
2023-01-10T18:15:30.524Z,0.98
2023-01-10T18:17:57.907Z,1.10
2023-01-10T18:20:24.733Z,0.93
2023-01-10T18:23:09.887Z,0.85
2023-01-10T18:25:36.675Z,0.95
2023-01-10T18:28:03.519Z,1.15
2023-01-10T18:30:30.331Z,1.08
2023-01-10T18:32:57.113Z,1.30
2023-01-10T18:35:24.035Z,1.58
2023-01-10T18:40:17.791Z,1.10
2023-01-10T18:42:44.563Z,1.58
2023-01-10T18:45:11.405Z,1.30
2023-01-10T18:47:38.309Z,1.27
2023-01-10T18:52:32.079Z,1.40
2023-01-10T18:55:01.448Z,1.50
2023-01-10T18:57:32.536Z,1.48
2023-01-10T18:59:59.348Z,1.23
2023-01-10T19:02:26.242Z,1.30
2023-01-10T19:07:19.723Z,2.60
2023-01-10T19:09:46.579Z,1.73
2023-01-10T19:12:13.650Z,1.50
2023-01-10T19:14:40.463Z,1.40
2023-01-10T19:17:07.421Z,1.50
2023-01-10T19:22:00.997Z,1.70
2023-01-10T19:24:29.658Z,1.70
2023-01-10T19:26:56.894Z,1.40
2023-01-10T19:29:24.347Z,1.75
2023-01-10T19:31:52.635Z,1.77
2023-01-10T19:34:19.664Z,1.50
2023-01-10T19:36:46.527Z,1.77
2023-01-10T19:39:14.450Z,1.83
2023-01-10T19:41:41.929Z,2.30
2023-01-10T19:44:13.000Z,2.50
2023-01-10T19:46:40.738Z,2.63
2023-01-10T19:49:08.413Z,2.72
2023-01-10T19:51:36.894Z,3.10
2023-01-10T19:54:05.682Z,2.60
2023-01-10T19:56:32.797Z,2.40
2023-01-10T19:58:59.767Z,2.53
2023-01-10T20:03:57.748Z,2.53
2023-01-10T20:06:26.785Z,2.47
2023-01-10T20:08:54.566Z,2.63
2023-01-10T20:11:23.808Z,2.33
2023-01-10T20:13:51.792Z,2.47
2023-01-10T20:16:21.613Z,2.33
2023-01-10T20:18:49.572Z,2.60
2023-01-10T20:21:18.164Z,2.75
2023-01-10T20:23:45.714Z,2.33
2023-01-10T20:26:16.187Z,2.22
2023-01-10T20:28:44.294Z,2.50
2023-01-10T20:31:15.351Z,2.50
2023-01-10T20:33:42.201Z,2.10
2023-01-10T20:36:12.270Z,2.30
2023-01-10T20:38:40.021Z,2.97
2023-01-10T20:41:10.670Z,2.60
2023-01-10T20:43:37.931Z,2.60
2023-01-10T20:46:10.984Z,2.72
2023-01-10T20:48:38.826Z,2.67
2023-01-10T20:51:06.492Z,2.90
2023-01-10T20:53:33.560Z,2.60
2023-01-10T20:56:09.440Z,2.45
2023-01-10T20:58:36.533Z,3.20
2023-01-10T21:01:03.802Z,2.97
2023-01-10T21:03:30.537Z,3.30
2023-01-10T21:05:58.710Z,3.13
2023-01-10T21:08:26.789Z,3.20
2023-01-10T21:10:53.617Z,2.75
2023-01-10T21:13:20.411Z,3.20
2023-01-10T21:15:48.120Z,2.83
2023-01-10T21:18:16.107Z,4.25
2023-01-10T21:20:43.867Z,4.50
2023-01-10T21:23:11.339Z,3.67
2023-01-10T21:25:38.068Z,3.90
2023-01-10T21:28:09.574Z,3.53
2023-01-10T21:30:37.349Z,3.25
2023-01-10T21:33:04.818Z,3.42
2023-01-10T21:35:32.173Z,3.50
2023-01-10T21:37:59.020Z,3.55
2023-01-10T21:40:26.524Z,3.58
2023-01-10T21:42:53.389Z,3.45
2023-01-10T21:45:21.695Z,3.47
2023-01-10T21:47:52.291Z,3.58
2023-01-10T21:50:22.264Z,3.78
2023-01-10T21:52:49.237Z,3.17
2023-01-10T21:55:19.095Z,3.50
2023-01-10T21:57:45.937Z,3.17
2023-01-10T22:00:13.312Z,3.30
2023-01-10T22:02:40.092Z,3.22
2023-01-10T22:05:07.688Z,3.35
2023-01-10T22:07:34.505Z,2.97
2023-01-10T22:10:01.347Z,3.25
2023-01-10T22:12:28.835Z,3.10
2023-01-10T22:14:55.682Z,3.33
2023-01-10T22:17:22.742Z,3.47
2023-01-10T22:19:49.837Z,3.10
2023-01-10T22:22:17.521Z,3.30
2023-01-10T22:24:46.820Z,3.05
2023-01-10T22:27:17.115Z,3.70
2023-01-10T22:29:44.161Z,3.47
2023-01-10T22:34:37.742Z,3.70
2023-01-10T22:37:04.970Z,3.85
2023-01-10T22:39:31.737Z,3.70
2023-01-10T22:41:58.411Z,3.60
2023-01-10T22:44:26.683Z,3.53
2023-01-10T22:46:55.566Z,3.78
2023-01-10T22:49:23.047Z,3.80
2023-01-10T22:51:50.294Z,3.90
2023-01-10T22:54:17.837Z,3.83
2023-01-10T22:56:46.222Z,3.65
2023-01-10T22:59:25.480Z,4.03
2023-01-10T23:01:52.220Z,4.25
2023-01-10T23:04:20.340Z,3.47
2023-01-10T23:06:48.448Z,3.50
2023-01-10T23:09:15.361Z,3.25
2023-01-10T23:11:42.120Z,3.65
2023-01-10T23:14:08.829Z,3.40
2023-01-10T23:16:35.594Z,3.00
2023-01-10T23:19:02.557Z,3.10
2023-01-10T23:21:29.512Z,3.28
2023-01-10T23:23:56.583Z,2.92
2023-01-10T23:26:23.453Z,3.40
2023-01-10T23:28:51.667Z,3.15
2023-01-10T23:31:21.874Z,2.92
2023-01-10T23:33:49.369Z,2.53
2023-01-10T23:36:17.043Z,2.70
2023-01-10T23:38:44.290Z,2.80
2023-01-10T23:41:11.680Z,3.00
2023-01-10T23:43:38.434Z,3.22
2023-01-10T23:46:06.455Z,3.83
2023-01-10T23:48:33.351Z,3.53
2023-01-10T23:51:00.263Z,2.97
2023-01-10T23:53:27.138Z,3.25
2023-01-10T23:55:54.024Z,3.53
2023-01-10T23:58:20.827Z,3.25
